sensor_id;sensor_type;location;lat;lon;timestamp;temperature;humidity
38380;DHT22;38377;47.418;18.882;2023-04-28T00:01:49;2.60;99.90
38380;DHT22;38377;47.418;18.882;2023-04-28T00:04:15;2.60;99.90
38380;DHT22;38377;47.418;18.882;2023-04-28T00:06:41;2.60;99.90
38380;DHT22;38377;47.418;18.882;2023-04-28T00:09:06;2.60;99.90
38380;DHT22;38377;47.418;18.882;2023-04-28T00:11:36;2.50;99.90
38380;DHT22;38377;47.418;18.882;2023-04-28T00:14:03;2.50;99.90
38380;DHT22;38377;47.418;18.882;2023-04-28T00:16:29;2.70;99.90
38380;DHT22;38377;47.418;18.882;2023-04-28T00:18:54;2.80;99.90
38380;DHT22;38377;47.418;18.882;2023-04-28T00:21:21;2.90;99.90
38380;DHT22;38377;47.418;18.882;2023-04-28T00:23:46;2.90;99.90
38380;DHT22;38377;47.418;18.882;2023-04-28T00:26:12;2.80;99.90
38380;DHT22;38377;47.418;18.882;2023-04-28T00:28:38;2.90;99.90
38380;DHT22;38377;47.418;18.882;2023-04-28T00:31:12;2.90;99.90
38380;DHT22;38377;47.418;18.882;2023-04-28T00:33:39;2.80;99.90
38380;DHT22;38377;47.418;18.882;2023-04-28T00:36:06;2.80;99.90
38380;DHT22;38377;47.418;18.882;2023-04-28T00:38:31;2.80;99.90
38380;DHT22;38377;47.418;18.882;2023-04-28T00:40:57;2.70;99.90
38380;DHT22;38377;47.418;18.882;2023-04-28T00:43:23;2.60;99.90
38380;DHT22;38377;47.418;18.882;2023-04-28T00:45:49;2.60;99.90
38380;DHT22;38377;47.418;18.882;2023-04-28T00:48:15;2.50;99.90
38380;DHT22;38377;47.418;18.882;2023-04-28T00:50:42;2.50;99.90
38380;DHT22;38377;47.418;18.882;2023-04-28T00:53:13;2.50;99.90
38380;DHT22;38377;47.418;18.882;2023-04-28T00:55:39;2.50;99.90
38380;DHT22;38377;47.418;18.882;2023-04-28T00:58:05;2.50;99.90
38380;DHT22;38377;47.418;18.882;2023-04-28T01:00:32;2.50;99.90
38380;DHT22;38377;47.418;18.882;2023-04-28T01:02:58;2.50;99.90
38380;DHT22;38377;47.418;18.882;2023-04-28T01:05:28;2.50;99.90
38380;DHT22;38377;47.418;18.882;2023-04-28T01:07:53;2.40;99.90
38380;DHT22;38377;47.418;18.882;2023-04-28T01:10:19;2.30;99.90
38380;DHT22;38377;47.418;18.882;2023-04-28T01:12:45;2.40;99.90
38380;DHT22;38377;47.418;18.882;2023-04-28T01:15:17;2.30;99.90
38380;DHT22;38377;47.418;18.882;2023-04-28T01:17:45;2.30;99.90
38380;DHT22;38377;47.418;18.882;2023-04-28T01:20:12;2.20;99.90
38380;DHT22;38377;47.418;18.882;2023-04-28T01:22:37;2.20;99.90
38380;DHT22;38377;47.418;18.882;2023-04-28T01:25:03;2.10;99.90
38380;DHT22;38377;47.418;18.882;2023-04-28T01:27:29;2.10;99.90
38380;DHT22;38377;47.418;18.882;2023-04-28T01:29:55;2.10;99.90
38380;DHT22;38377;47.418;18.882;2023-04-28T01:32:22;2.00;99.90
38380;DHT22;38377;47.418;18.882;2023-04-28T01:34:48;1.90;99.90
38380;DHT22;38377;47.418;18.882;2023-04-28T01:37:14;1.90;99.90
38380;DHT22;38377;47.418;18.882;2023-04-28T01:39:39;2.00;99.90
38380;DHT22;38377;47.418;18.882;2023-04-28T01:42:05;2.10;99.90
38380;DHT22;38377;47.418;18.882;2023-04-28T01:44:31;2.10;99.90
38380;DHT22;38377;47.418;18.882;2023-04-28T01:46:56;2.10;99.90
38380;DHT22;38377;47.418;18.882;2023-04-28T01:49:22;2.20;99.90
38380;DHT22;38377;47.418;18.882;2023-04-28T01:51:48;2.20;99.90
38380;DHT22;38377;47.418;18.882;2023-04-28T01:54:14;2.30;99.90
38380;DHT22;38377;47.418;18.882;2023-04-28T01:56:40;2.40;99.90
38380;DHT22;38377;47.418;18.882;2023-04-28T01:59:06;2.40;99.90
38380;DHT22;38377;47.418;18.882;2023-04-28T02:01:31;2.30;99.90
38380;DHT22;38377;47.418;18.882;2023-04-28T02:03:57;2.30;99.90
38380;DHT22;38377;47.418;18.882;2023-04-28T02:06:23;2.30;99.90
38380;DHT22;38377;47.418;18.882;2023-04-28T02:08:48;2.30;99.90
38380;DHT22;38377;47.418;18.882;2023-04-28T02:11:14;2.20;99.90
38380;DHT22;38377;47.418;18.882;2023-04-28T02:13:40;2.00;99.90
38380;DHT22;38377;47.418;18.882;2023-04-28T02:16:06;1.90;99.90
38380;DHT22;38377;47.418;18.882;2023-04-28T02:18:31;1.90;99.90
38380;DHT22;38377;47.418;18.882;2023-04-28T02:20:57;1.80;99.90
38380;DHT22;38377;47.418;18.882;2023-04-28T02:23:23;1.90;99.90
38380;DHT22;38377;47.418;18.882;2023-04-28T02:25:49;2.00;99.90
38380;DHT22;38377;47.418;18.882;2023-04-28T02:28:14;1.90;99.90
38380;DHT22;38377;47.418;18.882;2023-04-28T02:30:40;1.80;99.90
38380;DHT22;38377;47.418;18.882;2023-04-28T02:33:06;1.80;99.90
38380;DHT22;38377;47.418;18.882;2023-04-28T02:35:32;1.80;99.90
38380;DHT22;38377;47.418;18.882;2023-04-28T02:37:58;1.80;99.90
38380;DHT22;38377;47.418;18.882;2023-04-28T02:40:24;1.90;99.90
38380;DHT22;38377;47.418;18.882;2023-04-28T02:42:50;1.80;99.90
38380;DHT22;38377;47.418;18.882;2023-04-28T02:45:16;1.80;99.90
38380;DHT22;38377;47.418;18.882;2023-04-28T02:47:41;1.80;99.90
38380;DHT22;38377;47.418;18.882;2023-04-28T02:50:07;1.80;99.90
38380;DHT22;38377;47.418;18.882;2023-04-28T02:52:33;1.90;99.90
38380;DHT22;38377;47.418;18.882;2023-04-28T02:54:59;1.80;99.90
38380;DHT22;38377;47.418;18.882;2023-04-28T02:57:25;1.70;99.90
38380;DHT22;38377;47.418;18.882;2023-04-28T02:59:51;1.70;99.90
38380;DHT22;38377;47.418;18.882;2023-04-28T03:02:16;1.80;99.90
38380;DHT22;38377;47.418;18.882;2023-04-28T03:04:42;1.80;99.90
38380;DHT22;38377;47.418;18.882;2023-04-28T03:07:08;1.70;99.90
38380;DHT22;38377;47.418;18.882;2023-04-28T03:09:33;1.70;99.90
38380;DHT22;38377;47.418;18.882;2023-04-28T03:11:59;1.60;99.90
38380;DHT22;38377;47.418;18.882;2023-04-28T03:14:25;1.60;99.90
38380;DHT22;38377;47.418;18.882;2023-04-28T03:16:51;1.60;99.90
38380;DHT22;38377;47.418;18.882;2023-04-28T03:19:17;1.60;99.90
38380;DHT22;38377;47.418;18.882;2023-04-28T03:21:42;1.60;99.90
38380;DHT22;38377;47.418;18.882;2023-04-28T03:24:08;1.60;99.90
38380;DHT22;38377;47.418;18.882;2023-04-28T03:26:34;1.60;99.90
38380;DHT22;38377;47.418;18.882;2023-04-28T03:28:59;1.50;99.90
38380;DHT22;38377;47.418;18.882;2023-04-28T03:31:25;1.60;99.90
38380;DHT22;38377;47.418;18.882;2023-04-28T03:33:51;1.60;99.90
38380;DHT22;38377;47.418;18.882;2023-04-28T03:36:16;1.60;99.90
38380;DHT22;38377;47.418;18.882;2023-04-28T03:38:43;1.70;99.90
38380;DHT22;38377;47.418;18.882;2023-04-28T03:41:08;1.60;99.90
38380;DHT22;38377;47.418;18.882;2023-04-28T03:43:34;1.60;99.90
38380;DHT22;38377;47.418;18.882;2023-04-28T03:46:02;1.70;99.90
38380;DHT22;38377;47.418;18.882;2023-04-28T03:48:28;1.70;99.90
38380;DHT22;38377;47.418;18.882;2023-04-28T03:50:54;1.70;99.90
38380;DHT22;38377;47.418;18.882;2023-04-28T03:53:20;1.60;99.90
38380;DHT22;38377;47.418;18.882;2023-04-28T03:55:46;1.60;99.90
38380;DHT22;38377;47.418;18.882;2023-04-28T03:58:11;1.70;99.90
38380;DHT22;38377;47.418;18.882;2023-04-28T04:00:37;1.80;99.90
38380;DHT22;38377;47.418;18.882;2023-04-28T04:03:03;1.90;99.90
38380;DHT22;38377;47.418;18.882;2023-04-28T04:05:29;2.00;99.90
38380;DHT22;38377;47.418;18.882;2023-04-28T04:07:55;2.10;99.90
38380;DHT22;38377;47.418;18.882;2023-04-28T04:10:20;2.00;99.90
38380;DHT22;38377;47.418;18.882;2023-04-28T04:12:46;2.10;99.90
38380;DHT22;38377;47.418;18.882;2023-04-28T04:15:12;2.20;99.90
38380;DHT22;38377;47.418;18.882;2023-04-28T04:17:37;2.30;99.90
38380;DHT22;38377;47.418;18.882;2023-04-28T04:20:04;2.30;99.90
38380;DHT22;38377;47.418;18.882;2023-04-28T04:22:30;2.40;99.90
38380;DHT22;38377;47.418;18.882;2023-04-28T04:24:55;2.50;99.90
38380;DHT22;38377;47.418;18.882;2023-04-28T04:27:21;2.60;99.90
38380;DHT22;38377;47.418;18.882;2023-04-28T04:29:47;2.80;99.90
38380;DHT22;38377;47.418;18.882;2023-04-28T04:32:13;2.90;99.90
38380;DHT22;38377;47.418;18.882;2023-04-28T04:34:38;3.10;99.90
38380;DHT22;38377;47.418;18.882;2023-04-28T04:37:04;3.30;99.90
38380;DHT22;38377;47.418;18.882;2023-04-28T04:39:30;3.50;99.90
38380;DHT22;38377;47.418;18.882;2023-04-28T04:41:56;3.70;99.90
38380;DHT22;38377;47.418;18.882;2023-04-28T04:44:22;3.90;99.90
38380;DHT22;38377;47.418;18.882;2023-04-28T04:46:47;4.20;99.90
38380;DHT22;38377;47.418;18.882;2023-04-28T04:49:13;4.40;99.90
38380;DHT22;38377;47.418;18.882;2023-04-28T04:51:39;4.70;99.90
38380;DHT22;38377;47.418;18.882;2023-04-28T04:54:05;5.10;99.90
38380;DHT22;38377;47.418;18.882;2023-04-28T04:56:30;5.60;99.90
38380;DHT22;38377;47.418;18.882;2023-04-28T04:58:56;5.90;99.90
38380;DHT22;38377;47.418;18.882;2023-04-28T05:01:22;6.40;99.90
38380;DHT22;38377;47.418;18.882;2023-04-28T05:03:47;6.90;99.90
38380;DHT22;38377;47.418;18.882;2023-04-28T05:06:13;7.30;99.90
38380;DHT22;38377;47.418;18.882;2023-04-28T05:08:39;7.50;99.60
38380;DHT22;38377;47.418;18.882;2023-04-28T05:11:04;7.70;97.40
38380;DHT22;38377;47.418;18.882;2023-04-28T05:13:30;7.90;98.40
38380;DHT22;38377;47.418;18.882;2023-04-28T05:15:56;8.10;97.60
38380;DHT22;38377;47.418;18.882;2023-04-28T05:18:22;8.40;97.30
38380;DHT22;38377;47.418;18.882;2023-04-28T05:20:47;8.50;95.00
38380;DHT22;38377;47.418;18.882;2023-04-28T05:23:13;8.70;93.90
38380;DHT22;38377;47.418;18.882;2023-04-28T05:25:39;8.80;93.50
38380;DHT22;38377;47.418;18.882;2023-04-28T05:28:08;8.90;92.70
38380;DHT22;38377;47.418;18.882;2023-04-28T05:30:34;9.00;93.30
38380;DHT22;38377;47.418;18.882;2023-04-28T05:32:59;9.00;91.50
38380;DHT22;38377;47.418;18.882;2023-04-28T05:35:25;9.10;91.70
38380;DHT22;38377;47.418;18.882;2023-04-28T05:37:51;9.30;92.10
38380;DHT22;38377;47.418;18.882;2023-04-28T05:40:17;9.50;91.80
38380;DHT22;38377;47.418;18.882;2023-04-28T05:42:43;9.60;91.80
38380;DHT22;38377;47.418;18.882;2023-04-28T05:45:09;9.80;90.50
38380;DHT22;38377;47.418;18.882;2023-04-28T05:47:35;9.80;87.40
38380;DHT22;38377;47.418;18.882;2023-04-28T05:50:01;9.80;84.30
38380;DHT22;38377;47.418;18.882;2023-04-28T05:52:26;9.90;86.90
38380;DHT22;38377;47.418;18.882;2023-04-28T05:54:52;9.90;85.60
38380;DHT22;38377;47.418;18.882;2023-04-28T05:57:18;10.00;84.20
38380;DHT22;38377;47.418;18.882;2023-04-28T05:59:44;9.90;82.00
38380;DHT22;38377;47.418;18.882;2023-04-28T06:02:10;10.10;83.50
38380;DHT22;38377;47.418;18.882;2023-04-28T06:04:36;10.20;86.90
38380;DHT22;38377;47.418;18.882;2023-04-28T06:07:02;10.40;82.40
38380;DHT22;38377;47.418;18.882;2023-04-28T06:09:28;10.30;80.20
38380;DHT22;38377;47.418;18.882;2023-04-28T06:11:54;10.50;82.80
38380;DHT22;38377;47.418;18.882;2023-04-28T06:14:21;10.60;83.30
38380;DHT22;38377;47.418;18.882;2023-04-28T06:16:46;10.70;85.10
38380;DHT22;38377;47.418;18.882;2023-04-28T06:19:12;10.70;79.50
38380;DHT22;38377;47.418;18.882;2023-04-28T06:21:39;10.70;81.20
38380;DHT22;38377;47.418;18.882;2023-04-28T06:24:05;10.80;80.10
38380;DHT22;38377;47.418;18.882;2023-04-28T06:26:31;10.90;80.10
38380;DHT22;38377;47.418;18.882;2023-04-28T06:28:56;10.90;80.10
38380;DHT22;38377;47.418;18.882;2023-04-28T06:31:22;10.90;78.20
38380;DHT22;38377;47.418;18.882;2023-04-28T06:33:48;10.90;76.90
38380;DHT22;38377;47.418;18.882;2023-04-28T06:36:13;11.00;78.40
38380;DHT22;38377;47.418;18.882;2023-04-28T06:38:42;11.00;77.70
38380;DHT22;38377;47.418;18.882;2023-04-28T06:41:08;10.90;77.10
38380;DHT22;38377;47.418;18.882;2023-04-28T06:43:34;10.80;77.10
38380;DHT22;38377;47.418;18.882;2023-04-28T06:46:00;10.90;76.10
38380;DHT22;38377;47.418;18.882;2023-04-28T06:48:26;10.90;76.80
38380;DHT22;38377;47.418;18.882;2023-04-28T06:50:52;11.00;74.70
38380;DHT22;38377;47.418;18.882;2023-04-28T06:53:18;11.00;76.60
38380;DHT22;38377;47.418;18.882;2023-04-28T06:55:43;11.10;74.40
38380;DHT22;38377;47.418;18.882;2023-04-28T06:58:09;11.20;76.50
38380;DHT22;38377;47.418;18.882;2023-04-28T07:00:36;11.50;75.60
38380;DHT22;38377;47.418;18.882;2023-04-28T07:03:01;11.70;77.00
38380;DHT22;38377;47.418;18.882;2023-04-28T07:05:27;11.90;77.30
38380;DHT22;38377;47.418;18.882;2023-04-28T07:07:53;12.00;77.20
38380;DHT22;38377;47.418;18.882;2023-04-28T07:10:19;12.10;77.60
38380;DHT22;38377;47.418;18.882;2023-04-28T07:12:44;12.30;76.10
38380;DHT22;38377;47.418;18.882;2023-04-28T07:15:10;12.60;75.50
38380;DHT22;38377;47.418;18.882;2023-04-28T07:17:37;12.70;73.80
38380;DHT22;38377;47.418;18.882;2023-04-28T07:20:03;12.70;74.80
38380;DHT22;38377;47.418;18.882;2023-04-28T07:22:29;12.60;72.90
38380;DHT22;38377;47.418;18.882;2023-04-28T07:24:55;12.70;74.50
38380;DHT22;38377;47.418;18.882;2023-04-28T07:27:21;12.70;73.70
38380;DHT22;38377;47.418;18.882;2023-04-28T07:29:47;12.50;74.40
38380;DHT22;38377;47.418;18.882;2023-04-28T07:32:13;12.60;71.90
38380;DHT22;38377;47.418;18.882;2023-04-28T07:34:39;12.60;73.10
38380;DHT22;38377;47.418;18.882;2023-04-28T07:37:04;12.70;71.90
38380;DHT22;38377;47.418;18.882;2023-04-28T07:39:31;12.80;70.20
38380;DHT22;38377;47.418;18.882;2023-04-28T07:41:58;12.90;72.00
38380;DHT22;38377;47.418;18.882;2023-04-28T07:44:24;12.90;72.30
38380;DHT22;38377;47.418;18.882;2023-04-28T07:46:52;12.70;70.70
38380;DHT22;38377;47.418;18.882;2023-04-28T07:49:18;12.70;72.00
38380;DHT22;38377;47.418;18.882;2023-04-28T07:51:43;12.60;69.40
38380;DHT22;38377;47.418;18.882;2023-04-28T07:54:09;12.60;71.20
38380;DHT22;38377;47.418;18.882;2023-04-28T07:56:35;12.90;73.40
38380;DHT22;38377;47.418;18.882;2023-04-28T07:59:00;12.90;69.80
38380;DHT22;38377;47.418;18.882;2023-04-28T08:01:26;12.80;70.40
38380;DHT22;38377;47.418;18.882;2023-04-28T08:03:52;12.80;73.50
38380;DHT22;38377;47.418;18.882;2023-04-28T08:06:19;12.60;71.60
38380;DHT22;38377;47.418;18.882;2023-04-28T08:08:45;13.10;72.70
38380;DHT22;38377;47.418;18.882;2023-04-28T08:11:11;13.30;68.70
38380;DHT22;38377;47.418;18.882;2023-04-28T08:13:37;13.30;69.50
38380;DHT22;38377;47.418;18.882;2023-04-28T08:16:03;13.40;67.60
38380;DHT22;38377;47.418;18.882;2023-04-28T08:18:28;13.60;69.20
38380;DHT22;38377;47.418;18.882;2023-04-28T08:20:54;13.70;70.10
38380;DHT22;38377;47.418;18.882;2023-04-28T08:23:20;13.80;69.30
38380;DHT22;38377;47.418;18.882;2023-04-28T08:25:46;14.00;70.00
38380;DHT22;38377;47.418;18.882;2023-04-28T08:28:12;14.00;69.10
38380;DHT22;38377;47.418;18.882;2023-04-28T08:30:38;14.30;71.70
38380;DHT22;38377;47.418;18.882;2023-04-28T08:33:04;14.60;67.40
38380;DHT22;38377;47.418;18.882;2023-04-28T08:35:29;14.80;62.60
38380;DHT22;38377;47.418;18.882;2023-04-28T08:37:55;14.50;67.40
38380;DHT22;38377;47.418;18.882;2023-04-28T08:40:21;14.80;67.70
38380;DHT22;38377;47.418;18.882;2023-04-28T08:42:49;15.00;64.30
38380;DHT22;38377;47.418;18.882;2023-04-28T08:45:15;15.20;65.00
38380;DHT22;38377;47.418;18.882;2023-04-28T08:47:41;15.10;65.00
38380;DHT22;38377;47.418;18.882;2023-04-28T08:50:11;15.50;64.50
38380;DHT22;38377;47.418;18.882;2023-04-28T08:52:37;15.20;63.60
38380;DHT22;38377;47.418;18.882;2023-04-28T08:55:08;15.10;64.60
38380;DHT22;38377;47.418;18.882;2023-04-28T09:00:10;15.30;63.80
38380;DHT22;38377;47.418;18.882;2023-04-28T09:02:36;15.70;63.90
38380;DHT22;38377;47.418;18.882;2023-04-28T09:05:09;15.90;62.40
38380;DHT22;38377;47.418;18.882;2023-04-28T09:07:35;16.30;60.30
38380;DHT22;38377;47.418;18.882;2023-04-28T09:12:36;15.90;60.90
38380;DHT22;38377;47.418;18.882;2023-04-28T09:15:03;16.00;59.20
38380;DHT22;38377;47.418;18.882;2023-04-28T09:17:33;16.00;59.20
38380;DHT22;38377;47.418;18.882;2023-04-28T09:20:25;16.00;58.50
38380;DHT22;38377;47.418;18.882;2023-04-28T09:22:52;15.80;56.20
38380;DHT22;38377;47.418;18.882;2023-04-28T09:25:19;15.90;60.60
38380;DHT22;38377;47.418;18.882;2023-04-28T09:27:46;16.10;54.40
38380;DHT22;38377;47.418;18.882;2023-04-28T09:30:12;16.20;57.60
38380;DHT22;38377;47.418;18.882;2023-04-28T09:32:38;16.00;56.10
38380;DHT22;38377;47.418;18.882;2023-04-28T09:35:04;16.20;58.30
38380;DHT22;38377;47.418;18.882;2023-04-28T09:37:32;16.10;57.00
38380;DHT22;38377;47.418;18.882;2023-04-28T09:40:07;16.50;56.90
38380;DHT22;38377;47.418;18.882;2023-04-28T09:42:41;16.20;53.60
38380;DHT22;38377;47.418;18.882;2023-04-28T09:45:11;16.20;53.10
38380;DHT22;38377;47.418;18.882;2023-04-28T09:47:39;15.90;54.90
38380;DHT22;38377;47.418;18.882;2023-04-28T09:50:08;15.80;57.40
38380;DHT22;38377;47.418;18.882;2023-04-28T09:52:34;15.90;57.70
38380;DHT22;38377;47.418;18.882;2023-04-28T09:55:04;15.80;58.10
38380;DHT22;38377;47.418;18.882;2023-04-28T09:57:32;15.50;59.00
38380;DHT22;38377;47.418;18.882;2023-04-28T09:59:59;15.50;58.50
38380;DHT22;38377;47.418;18.882;2023-04-28T10:02:27;15.50;58.50
38380;DHT22;38377;47.418;18.882;2023-04-28T10:04:53;15.80;59.30
38380;DHT22;38377;47.418;18.882;2023-04-28T10:07:20;15.80;57.00
38380;DHT22;38377;47.418;18.882;2023-04-28T10:09:47;15.70;57.00
38380;DHT22;38377;47.418;18.882;2023-04-28T10:12:19;15.60;56.90
38380;DHT22;38377;47.418;18.882;2023-04-28T10:14:46;15.80;58.20
38380;DHT22;38377;47.418;18.882;2023-04-28T10:17:14;16.10;59.90
38380;DHT22;38377;47.418;18.882;2023-04-28T10:19:44;16.30;57.30
38380;DHT22;38377;47.418;18.882;2023-04-28T10:27:54;17.70;57.80
38380;DHT22;38377;47.418;18.882;2023-04-28T10:30:24;17.30;56.50
38380;DHT22;38377;47.418;18.882;2023-04-28T10:42:59;16.70;59.30
38380;DHT22;38377;47.418;18.882;2023-04-28T11:06:20;16.40;56.90
38380;DHT22;38377;47.418;18.882;2023-04-28T11:08:48;16.30;56.70
38380;DHT22;38377;47.418;18.882;2023-04-28T11:11:20;16.50;59.00
38380;DHT22;38377;47.418;18.882;2023-04-28T11:13:47;16.40;58.20
38380;DHT22;38377;47.418;18.882;2023-04-28T11:16:14;16.00;57.10
38380;DHT22;38377;47.418;18.882;2023-04-28T11:21:25;15.90;59.60
38380;DHT22;38377;47.418;18.882;2023-04-28T11:23:53;15.80;58.70
38380;DHT22;38377;47.418;18.882;2023-04-28T11:26:19;15.80;58.00
38380;DHT22;38377;47.418;18.882;2023-04-28T11:28:51;15.60;56.30
38380;DHT22;38377;47.418;18.882;2023-04-28T11:31:21;15.70;57.20
38380;DHT22;38377;47.418;18.882;2023-04-28T11:33:53;15.60;57.50
38380;DHT22;38377;47.418;18.882;2023-04-28T11:36:34;15.70;56.90
38380;DHT22;38377;47.418;18.882;2023-04-28T11:39:02;15.70;57.50
38380;DHT22;38377;47.418;18.882;2023-04-28T11:41:30;15.90;57.20
38380;DHT22;38377;47.418;18.882;2023-04-28T11:43:56;15.90;58.20
38380;DHT22;38377;47.418;18.882;2023-04-28T11:46:23;15.90;57.40
38380;DHT22;38377;47.418;18.882;2023-04-28T11:49:03;15.80;57.30
38380;DHT22;38377;47.418;18.882;2023-04-28T11:51:30;15.90;57.70
38380;DHT22;38377;47.418;18.882;2023-04-28T11:53:57;16.00;57.40
38380;DHT22;38377;47.418;18.882;2023-04-28T11:56:22;16.10;60.20
38380;DHT22;38377;47.418;18.882;2023-04-28T11:59:07;16.30;58.60
38380;DHT22;38377;47.418;18.882;2023-04-28T12:01:42;16.60;58.00
38380;DHT22;38377;47.418;18.882;2023-04-28T12:04:08;16.90;57.40
38380;DHT22;38377;47.418;18.882;2023-04-28T12:06:34;17.00;57.50
38380;DHT22;38377;47.418;18.882;2023-04-28T12:09:00;16.80;56.80
38380;DHT22;38377;47.418;18.882;2023-04-28T12:11:29;16.90;58.10
38380;DHT22;38377;47.418;18.882;2023-04-28T12:14:02;16.90;58.50
38380;DHT22;38377;47.418;18.882;2023-04-28T12:16:39;16.50;56.30
38380;DHT22;38377;47.418;18.882;2023-04-28T12:19:09;16.30;57.10
38380;DHT22;38377;47.418;18.882;2023-04-28T12:21:36;16.80;58.10
38380;DHT22;38377;47.418;18.882;2023-04-28T12:24:19;17.10;57.10
38380;DHT22;38377;47.418;18.882;2023-04-28T12:26:46;16.80;55.70
38380;DHT22;38377;47.418;18.882;2023-04-28T12:29:45;16.60;57.30
38380;DHT22;38377;47.418;18.882;2023-04-28T12:32:11;16.70;56.70
38380;DHT22;38377;47.418;18.882;2023-04-28T12:34:38;16.20;56.30
38380;DHT22;38377;47.418;18.882;2023-04-28T12:37:05;16.10;57.70
38380;DHT22;38377;47.418;18.882;2023-04-28T12:39:32;16.20;58.50
38380;DHT22;38377;47.418;18.882;2023-04-28T12:41:58;16.40;58.90
38380;DHT22;38377;47.418;18.882;2023-04-28T12:44:25;16.50;59.90
38380;DHT22;38377;47.418;18.882;2023-04-28T12:46:53;16.60;58.80
38380;DHT22;38377;47.418;18.882;2023-04-28T12:49:20;16.50;57.70
38380;DHT22;38377;47.418;18.882;2023-04-28T12:51:46;16.40;56.90
38380;DHT22;38377;47.418;18.882;2023-04-28T12:54:11;16.40;60.60
38380;DHT22;38377;47.418;18.882;2023-04-28T12:56:38;16.50;57.50
38380;DHT22;38377;47.418;18.882;2023-04-28T12:59:04;16.30;57.70
38380;DHT22;38377;47.418;18.882;2023-04-28T13:01:32;16.30;59.50
38380;DHT22;38377;47.418;18.882;2023-04-28T13:03:58;16.40;57.70
38380;DHT22;38377;47.418;18.882;2023-04-28T13:06:26;16.30;58.60
38380;DHT22;38377;47.418;18.882;2023-04-28T13:08:52;16.10;59.90
38380;DHT22;38377;47.418;18.882;2023-04-28T13:11:17;16.00;59.30
38380;DHT22;38377;47.418;18.882;2023-04-28T13:13:43;16.00;60.50
38380;DHT22;38377;47.418;18.882;2023-04-28T13:16:09;16.00;60.50
38380;DHT22;38377;47.418;18.882;2023-04-28T13:18:35;16.10;60.00
38380;DHT22;38377;47.418;18.882;2023-04-28T13:21:01;16.50;60.30
38380;DHT22;38377;47.418;18.882;2023-04-28T13:23:26;16.70;59.30
38380;DHT22;38377;47.418;18.882;2023-04-28T13:25:52;16.70;58.20
38380;DHT22;38377;47.418;18.882;2023-04-28T13:28:18;16.70;58.50
38380;DHT22;38377;47.418;18.882;2023-04-28T13:30:43;17.10;57.80
38380;DHT22;38377;47.418;18.882;2023-04-28T13:33:09;17.00;57.10
38380;DHT22;38377;47.418;18.882;2023-04-28T13:35:36;16.70;58.20
38380;DHT22;38377;47.418;18.882;2023-04-28T13:38:02;16.60;59.60
38380;DHT22;38377;47.418;18.882;2023-04-28T13:40:27;16.50;60.50
38380;DHT22;38377;47.418;18.882;2023-04-28T13:42:53;16.40;59.60
38380;DHT22;38377;47.418;18.882;2023-04-28T13:45:19;16.50;61.80
38380;DHT22;38377;47.418;18.882;2023-04-28T13:47:46;16.70;59.70
38380;DHT22;38377;47.418;18.882;2023-04-28T13:50:13;17.10;59.00
38380;DHT22;38377;47.418;18.882;2023-04-28T13:52:38;17.30;57.80
38380;DHT22;38377;47.418;18.882;2023-04-28T13:55:04;17.30;57.70
38380;DHT22;38377;47.418;18.882;2023-04-28T13:57:30;17.30;59.90
38380;DHT22;38377;47.418;18.882;2023-04-28T13:59:55;17.10;59.30
38380;DHT22;38377;47.418;18.882;2023-04-28T14:02:21;17.00;60.00
38380;DHT22;38377;47.418;18.882;2023-04-28T14:04:47;16.80;59.70
38380;DHT22;38377;47.418;18.882;2023-04-28T14:07:15;16.50;60.00
38380;DHT22;38377;47.418;18.882;2023-04-28T14:09:41;16.50;60.60
38380;DHT22;38377;47.418;18.882;2023-04-28T14:12:06;16.70;62.50
38380;DHT22;38377;47.418;18.882;2023-04-28T14:14:33;16.80;60.40
38380;DHT22;38377;47.418;18.882;2023-04-28T14:16:59;17.00;61.00
38380;DHT22;38377;47.418;18.882;2023-04-28T14:19:25;17.00;60.70
38380;DHT22;38377;47.418;18.882;2023-04-28T14:21:52;17.00;59.40
38380;DHT22;38377;47.418;18.882;2023-04-28T14:24:18;16.90;60.50
38380;DHT22;38377;47.418;18.882;2023-04-28T14:26:45;17.00;61.50
38380;DHT22;38377;47.418;18.882;2023-04-28T14:29:11;17.00;60.60
38380;DHT22;38377;47.418;18.882;2023-04-28T14:31:37;16.90;59.30
38380;DHT22;38377;47.418;18.882;2023-04-28T14:34:03;16.90;60.60
38380;DHT22;38377;47.418;18.882;2023-04-28T14:36:32;16.90;60.50
38380;DHT22;38377;47.418;18.882;2023-04-28T14:38:58;16.90;59.90
38380;DHT22;38377;47.418;18.882;2023-04-28T14:41:24;16.90;60.20
38380;DHT22;38377;47.418;18.882;2023-04-28T14:43:50;16.80;60.60
38380;DHT22;38377;47.418;18.882;2023-04-28T14:46:16;16.80;61.20
38380;DHT22;38377;47.418;18.882;2023-04-28T14:48:47;16.80;61.30
38380;DHT22;38377;47.418;18.882;2023-04-28T14:51:13;16.70;60.80
38380;DHT22;38377;47.418;18.882;2023-04-28T14:53:38;16.60;62.50
38380;DHT22;38377;47.418;18.882;2023-04-28T14:56:05;16.70;62.60
38380;DHT22;38377;47.418;18.882;2023-04-28T14:58:31;16.70;61.30
38380;DHT22;38377;47.418;18.882;2023-04-28T15:00:57;16.70;62.30
38380;DHT22;38377;47.418;18.882;2023-04-28T15:03:23;16.70;62.20
38380;DHT22;38377;47.418;18.882;2023-04-28T15:05:48;16.60;61.30
38380;DHT22;38377;47.418;18.882;2023-04-28T15:08:14;16.50;62.70
38380;DHT22;38377;47.418;18.882;2023-04-28T15:10:40;16.50;62.40
38380;DHT22;38377;47.418;18.882;2023-04-28T15:13:06;16.50;62.80
38380;DHT22;38377;47.418;18.882;2023-04-28T15:15:32;16.40;61.90
38380;DHT22;38377;47.418;18.882;2023-04-28T15:17:57;16.30;63.10
38380;DHT22;38377;47.418;18.882;2023-04-28T15:20:32;16.30;63.90
38380;DHT22;38377;47.418;18.882;2023-04-28T15:22:58;16.30;63.40
38380;DHT22;38377;47.418;18.882;2023-04-28T15:25:24;16.30;63.70
38380;DHT22;38377;47.418;18.882;2023-04-28T15:27:50;16.20;65.90
38380;DHT22;38377;47.418;18.882;2023-04-28T15:30:17;16.00;64.50
38380;DHT22;38377;47.418;18.882;2023-04-28T15:32:43;15.90;64.40
38380;DHT22;38377;47.418;18.882;2023-04-28T15:35:09;15.90;65.40
38380;DHT22;38377;47.418;18.882;2023-04-28T15:37:43;15.80;66.40
38380;DHT22;38377;47.418;18.882;2023-04-28T15:40:11;15.70;65.40
38380;DHT22;38377;47.418;18.882;2023-04-28T15:42:37;15.60;64.90
38380;DHT22;38377;47.418;18.882;2023-04-28T15:45:04;15.60;65.30
38380;DHT22;38377;47.418;18.882;2023-04-28T15:47:31;15.60;65.00
38380;DHT22;38377;47.418;18.882;2023-04-28T15:49:57;15.60;65.80
38380;DHT22;38377;47.418;18.882;2023-04-28T15:52:26;15.50;64.60
38380;DHT22;38377;47.418;18.882;2023-04-28T15:54:53;15.50;64.80
38380;DHT22;38377;47.418;18.882;2023-04-28T15:57:18;15.50;65.50
38380;DHT22;38377;47.418;18.882;2023-04-28T15:59:44;15.50;64.90
38380;DHT22;38377;47.418;18.882;2023-04-28T16:02:10;15.50;65.40
38380;DHT22;38377;47.418;18.882;2023-04-28T16:04:36;15.50;66.60